• Join FlightAware (Why Join?)
  • Login
  • US Flag 
09:52AM EDT


 

Airport Tracker/Info


-or-


 

Live Flight TrackerFlight Track Log ✈ SKW5517 ✈ 25-Apr-2013 ✈ KGFK - KDEN

Flight Track Log - Related Links

Times and Time Zones

All times are in EDT time to prevent confusion due to time zone crossing. See the SKW5517 flight status page for this flight to view local times or setup timezone preferences in your user account.

Time Position Orientation Groundspeed Altitude Reporting Facility
EDT Latitude Longitude Course Direction KTS MPH feet Rate Location/Type
05:58PM 47.9347 -97.1811 227° Southwest 138 159 1,600  Level Minneapolis Center
05:59PM 47.9117 -97.1817 181° South 150 173 2,700 1,200 Climbing Minneapolis Center
05:59PM 47.8969 -97.1825 182° South 172 198 2,800 660 Climbing Minneapolis Center
06:00PM 47.8539 -97.1911 188° South 189 217 3,500 840 Climbing Minneapolis Center
06:00PM 47.8481 -97.1997 225° Southwest 187 215 3,700 2,220 Climbing Minneapolis Center
06:01PM 47.8019 -97.2725 227° Southwest 223 257 6,500 3,300 Climbing Minneapolis Center
06:02PM 47.6432 -97.6098 224° Southwest  Level FlightAware Approximate
06:02PM 47.7719 -97.3892 249° West 243 280 10,600  Level Minneapolis Center
06:03PM 47.5682 -97.7170 224° Southwest  Level FlightAware Approximate
06:03PM 47.7422 -97.4881 246° West 254 292 13,600  Level Minneapolis Center
06:04PM 47.4951 -97.8270 227° Southwest  Level FlightAware Approximate
06:05PM 47.6939 -97.5786 232° Southwest 270 311 15,300  Level Minneapolis Center
06:06PM 47.6150 -97.6922 224° Southwest 305 351 17,000 1,620 Climbing Minneapolis Center
06:07PM 47.5456 -97.7958 225° Southwest 329 379 19,000 1,860 Climbing Minneapolis Center
06:08PM 47.4758 -97.8997 225° Southwest 338 389 20,900 1,740 Climbing Minneapolis Center
06:09PM 47.4019 -98.0056 224° Southwest 351 404 22,700 1,560 Climbing Minneapolis Center
06:10PM 47.3300 -98.1094 224° Southwest 359 413 24,200 1,320 Climbing Minneapolis Center
06:11PM 47.2431 -98.2353 225° Southwest 364 419 25,500 1,080 Climbing Minneapolis Center
06:12PM 47.1678 -98.3439 224° Southwest 375 432 26,500 960 Climbing Minneapolis Center
06:13PM 47.0917 -98.4544 225° Southwest 383 441 27,500 960 Climbing Minneapolis Center
06:14PM 47.0147 -98.5628 224° Southwest 384 442 28,500 960 Climbing Minneapolis Center
06:15PM 46.9378 -98.6719 224° Southwest 385 443 29,500 960 Climbing Minneapolis Center
06:16PM 46.8472 -98.7547 212° Southwest 385 443 30,500 1,020 Climbing Minneapolis Center
06:17PM 46.7353 -98.8475 210° Southwest 384 442 31,700 720 Climbing Minneapolis Center
06:18PM 46.6439 -98.9242 210° Southwest 381 438 32,000 120 Climbing Minneapolis Center
06:19PM 46.5497 -99.0064 211° Southwest 391 450 32,000  Level Minneapolis Center
06:20PM 46.4511 -99.0883 210° Southwest 404 465 32,000  Level Minneapolis Center
06:21PM 46.3503 -99.1711 210° Southwest 413 475 32,000  Level Minneapolis Center
06:22PM 46.2492 -99.2547 210° Southwest 418 481 32,000  Level Minneapolis Center
06:23PM 46.1303 -99.3536 210° Southwest 419 482 32,000  Level Minneapolis Center
06:24PM 46.0281 -99.4367 209° Southwest 421 484 32,000  Level Minneapolis Center
06:25PM 45.9258 -99.5208 210° Southwest 422 486 32,000  Level Minneapolis Center
06:26PM 45.8236 -99.6031 209° Southwest 423 487 32,000  Level Minneapolis Center
06:28PM 45.7003 -99.7028 209° Southwest 423 487 32,000  Level Minneapolis Center
06:29PM 45.5992 -99.7847 210° Southwest 422 486 32,000  Level Minneapolis Center
06:30PM 45.4969 -99.8656 209° Southwest 421 484 32,000  Level Minneapolis Center
06:31PM 45.3950 -99.9467 209° Southwest 420 483 32,000  Level Minneapolis Center
06:32PM 45.2944 -100.0275 209° Southwest 420 483 32,000  Level Minneapolis Center
06:33PM 45.1753 -100.1219 209° Southwest 416 479 32,000  Level Minneapolis Center
06:34PM 45.0764 -100.2000 209° Southwest 416 479 32,000  Level Minneapolis Center
06:35PM 44.9767 -100.2786 209° Southwest 416 479 32,000  Level Minneapolis Center
06:36PM 44.8750 -100.3589 209° Southwest 420 483 32,000  Level Minneapolis Center
06:37PM 44.7733 -100.4386 209° Southwest 420 483 32,000  Level Minneapolis Center
06:38PM 44.6503 -100.5325 209° Southwest 421 484 32,000  Level Minneapolis Center
06:39PM 44.5483 -100.6122 209° Southwest 420 483 32,000  Level Minneapolis Center
06:41PM 44.3419 -100.7706 209° Southwest 423 487 32,000  Level Minneapolis Center
06:42PM 44.2394 -100.8483 209° Southwest 421 484 32,000  Level Minneapolis Center
06:43PM 44.1297 -100.9317 209° Southwest 421 484 32,000  Level Minneapolis Center
06:44PM 44.0108 -101.0217 209° Southwest 424 488 32,000  Level Minneapolis Center
06:46PM 43.8436 -101.1469 208° Southwest 426 490 32,000  Level Denver Center
06:46PM 43.8022 -101.1803 210° Southwest 427 491 32,000  Level Minneapolis Center
06:47PM 43.6975 -101.2594 209° Southwest 429 494 32,000  Level Minneapolis Center
06:48PM 43.5919 -101.3372 208° Southwest 430 495 32,000  Level Minneapolis Center
06:49PM 43.5278 -101.3833 208° Southwest 431 496 32,000  Level Denver Center
06:50PM 43.4228 -101.4631 209° Southwest 432 497 32,000  Level Denver Center
06:51PM 43.2953 -101.5542 207° Southwest 431 496 32,000  Level Denver Center
06:52PM 43.1864 -101.6286 207° Southwest 436 502 32,000  Level Denver Center
06:53PM 43.0769 -101.7014 206° Southwest 437 503 32,000  Level Denver Center
06:54PM 42.9694 -101.7742 206° Southwest 440 506 32,000  Level Denver Center
06:55PM 42.8467 -101.8542 206° Southwest 434 499 32,000  Level Denver Center
06:56PM 42.7419 -101.9250 206° Southwest 437 503 32,000  Level Denver Center
06:57PM 42.6183 -102.0061 206° Southwest 440 506 32,000  Level Denver Center
06:58PM 42.5300 -102.0633 206° Southwest 441 507 32,000  Level Denver Center
06:59PM 42.4089 -102.1425 206° Southwest 433 498 32,000  Level Denver Center
07:00PM 42.2872 -102.2219 206° Southwest 433 498 32,000  Level Denver Center
07:01PM 42.1842 -102.2892 206° Southwest 429 494 32,000  Level Denver Center
07:02PM 42.0611 -102.3703 206° Southwest 437 503 32,000  Level Denver Center
07:03PM 41.9567 -102.4381 206° Southwest 437 503 32,000  Level Denver Center
07:04PM 41.8336 -102.5164 205° Southwest 437 503 32,000  Level Denver Center
07:05PM 41.7161 -102.5908 205° Southwest 438 504 32,000  Level Denver Center
07:06PM 41.6053 -102.6622 206° Southwest 438 504 32,000  Level Denver Center
07:07PM 41.5011 -102.7278 205° Southwest 434 499 32,000  Level Denver Center
07:08PM 41.3786 -102.8053 202° Southwest 435 501 32,000  Level Denver Center
07:09PM 41.3907 -102.7871 202° Southwest  Level FlightAware Approximate
07:09PM 41.2747 -102.8700 205° Southwest 431 496 32,000  Level Denver Center
07:10PM 41.1631 -102.9417 206° Southwest 429 494 32,000  Level Denver Center
07:12PM 41.0636 -103.0289 213° Southwest 422 486 32,000  Level Denver Center
07:13PM 40.9864 -103.1361 226° Southwest 418 481 32,000  Level Denver Center
07:14PM 40.8950 -103.2614 226° Southwest 423 487 32,000 -240 Level Denver Center
07:15PM 40.8203 -103.3669 227° Southwest 416 479 31,600 -1,440 Descending Denver Center
07:16PM 40.7336 -103.4869 226° Southwest 406 467 29,100 -2,160 Descending Denver Center
07:17PM 40.6672 -103.5772 226° Southwest 366 421 27,200 -1,680 Descending Denver Center
07:18PM 40.5883 -103.6858 226° Southwest 367 422 25,700 -1,860 Descending Denver Center
07:19PM 40.5228 -103.7764 226° Southwest 356 410 23,400 -2,220 Descending Denver Center
07:20PM 40.4533 -103.8722 226° Southwest 324 373 21,200 -2,040 Descending Denver Center
07:21PM 40.3925 -103.9553 226° Southwest 310 357 19,200 -1,740 Descending Denver Center
07:22PM 40.3361 -104.0342 227° Southwest 300 345 17,700 -1,380 Descending Denver Center
07:23PM 40.2772 -104.1142 226° Southwest 285 328 16,400 -1,260 Descending Denver Center
07:24PM 40.2444 -104.2044 245° Southwest 283 326 15,100 -1,320 Descending Denver Center
07:25PM 40.2264 -104.3097 257° West 277 319 13,700 -1,320 Descending Denver Center
07:26PM 40.1825 -104.3950 236° Southwest 278 320 12,400 -1,260 Descending Denver Center
07:27PM 40.1406 -104.4731 235° Southwest 272 313 11,100 -1,380 Descending Denver Center
07:27PM 40.1167 -104.5000 221° Southwest 272 313 10,600 -1,980 Descending Denver TRACON
07:28PM 40.0667 -104.5833 232° Southwest 276 318 8,500 -2,100 Descending Denver TRACON